Skip Navigation Links Skip Navigation Links

Current Weather

Santacruz Apt, Mumbai (Bombay), India

For information only: do not use for flight planning or navigation.
Latest weather
Observation time Saturday, July 11, 2020 7:00 AM IST
Local time Saturday, July 11, 2020 7:45 AM IST
Flight conditions Instrument Meteorological Conditions
Winds
Wind direction South-Southwest (210°)
Wind speed 8 mph
Visibility 1.6 mi.
Present weather haze
Sky condition
Ceiling 10,000 ft. broken clouds
Cloud layer scattered clouds 1,800 ft.
Cloud layer scattered clouds 2,500 ft.
Cloud layer broken clouds 10,000 ft.
Temperature 84°F
Dewpoint 81°F
Altimeter 29.65 in.Hg
Derived measurements
Relative humidity 89%
Heat index 98°F
Density altitude 2440 ft.
Remarks
No significant changes expected in the next two hours.
METAR VABB 110130Z 21007KT 2500 HZ SCT018 SCT025 BKN100 29/27 Q1004 NOSIG

Settings

Location code

InnerDrive.Weather 4.0.6770.0 Release CLR 4.0.30319.42000
Copyright ©2018 Inner Drive Technology. All rights reserved. Portions Copyright ©1986-2018 David Braverman.

Find weather

Site navigation


Skip Navigation Links

Place info

Page info

PayPal - The safer, easier way to pay online!

Return home.

Copyright ©2020 Inner Drive Technology. Purveyors of fine, hand-crafted computer software. Page printed 2020-07-11T02:15:45 UTC.